createdAt,value
2016-08-01T00:00:27.156Z,21.09
2016-08-01T00:01:29.593Z,21.08
2016-08-01T00:02:26.595Z,21.09
2016-08-01T00:04:30.016Z,21.04
2016-08-01T00:05:21.590Z,21.09
2016-08-01T00:06:31.444Z,21.58
2016-08-01T00:07:31.765Z,21.60
2016-08-01T00:08:31.215Z,21.45
2016-08-01T00:09:32.265Z,21.12
2016-08-01T00:10:22.316Z,21.09
2016-08-01T00:11:20.765Z,21.03
2016-08-01T00:12:30.280Z,21.54
2016-08-01T00:13:29.062Z,21.04
2016-08-01T00:14:21.913Z,21.03
2016-08-01T00:15:25.454Z,21.02
2016-08-01T00:16:35.460Z,20.99
2016-08-01T00:17:30.205Z,20.94
2016-08-01T00:19:31.785Z,20.94
2016-08-01T00:20:28.214Z,20.92
2016-08-01T00:21:31.173Z,20.90
2016-08-01T00:22:27.739Z,20.94
2016-08-01T00:23:26.745Z,20.91
2016-08-01T00:24:28.779Z,20.93
2016-08-01T00:25:31.743Z,20.96
2016-08-01T00:26:33.914Z,21.09
2016-08-01T00:27:31.124Z,20.96
2016-08-01T00:28:30.473Z,20.93
2016-08-01T00:29:29.368Z,20.93
2016-08-01T00:30:27.437Z,20.90
2016-08-01T00:31:28.749Z,20.89
2016-08-01T00:32:31.133Z,20.89
2016-08-01T00:34:36.983Z,20.88
2016-08-01T00:35:28.992Z,20.87
2016-08-01T00:36:28.906Z,20.85
2016-08-01T00:37:25.733Z,20.86
2016-08-01T00:38:23.338Z,20.86
2016-08-01T00:39:27.534Z,20.86
2016-08-01T00:40:27.674Z,21.40
2016-08-01T00:41:27.839Z,20.88
2016-08-01T00:42:37.039Z,20.84
2016-08-01T00:43:28.495Z,20.83
2016-08-01T00:44:12.246Z,20.81
2016-08-01T00:45:33.566Z,20.75
2016-08-01T00:46:25.760Z,20.78
2016-08-01T00:47:27.680Z,20.81
2016-08-01T00:49:28.168Z,20.74
2016-08-01T00:50:32.325Z,20.80
2016-08-01T00:51:28.244Z,20.75
2016-08-01T00:52:31.522Z,20.74
2016-08-01T00:53:21.000Z,20.75
2016-08-01T00:54:32.350Z,20.72
2016-08-01T00:55:31.299Z,20.74
2016-08-01T00:56:20.584Z,20.71
2016-08-01T00:57:26.404Z,20.71
2016-08-01T00:58:30.040Z,20.65
2016-08-01T00:59:33.565Z,20.61
2016-08-01T01:00:26.505Z,20.64
2016-08-01T01:01:26.441Z,20.59
2016-08-01T01:02:31.889Z,20.64
2016-08-01T01:03:22.293Z,20.63
2016-08-01T01:04:29.674Z,21.16
2016-08-01T01:05:26.305Z,21.20
2016-08-01T01:06:27.864Z,20.85
2016-08-01T01:07:37.253Z,20.71
2016-08-01T01:08:19.556Z,20.68
2016-08-01T01:09:21.596Z,20.67
2016-08-01T01:10:26.630Z,20.58
2016-08-01T01:11:19.770Z,20.61
2016-08-01T01:12:27.549Z,20.53
2016-08-01T01:13:36.383Z,20.50
2016-08-01T01:14:26.741Z,20.53
2016-08-01T01:15:24.245Z,20.50
2016-08-01T01:16:27.293Z,21.03
2016-08-01T01:17:28.619Z,21.10
2016-08-01T01:18:19.212Z,21.13
2016-08-01T01:19:27.105Z,21.14
2016-08-01T01:20:28.946Z,21.13
2016-08-01T01:21:28.025Z,21.03
2016-08-01T01:22:29.771Z,20.99
2016-08-01T01:23:27.254Z,20.50
2016-08-01T01:24:30.337Z,20.49
2016-08-01T01:25:34.052Z,20.44
2016-08-01T01:26:29.923Z,20.46
2016-08-01T01:27:32.856Z,20.42
2016-08-01T01:28:29.075Z,20.41
2016-08-01T01:29:30.046Z,20.45
2016-08-01T01:30:26.194Z,20.45
2016-08-01T01:31:30.327Z,20.47
2016-08-01T01:32:26.896Z,20.42
2016-08-01T01:33:27.902Z,20.38
2016-08-01T01:34:29.259Z,20.38
2016-08-01T01:35:32.054Z,20.35
2016-08-01T01:36:28.040Z,20.84
2016-08-01T01:37:31.344Z,20.91
2016-08-01T01:38:27.826Z,20.59
2016-08-01T01:39:32.561Z,20.42
2016-08-01T01:40:29.320Z,20.33
2016-08-01T01:41:31.472Z,20.34
2016-08-01T01:42:25.939Z,20.35
2016-08-01T01:43:30.834Z,20.32
2016-08-01T01:44:28.104Z,20.30
2016-08-01T01:45:31.586Z,20.26
2016-08-01T01:46:30.407Z,20.25
2016-08-01T01:47:21.558Z,20.30
2016-08-01T01:48:31.596Z,20.25
2016-08-01T01:49:33.101Z,20.27
2016-08-01T01:50:22.660Z,20.27
2016-08-01T01:51:29.400Z,20.24
2016-08-01T01:52:31.602Z,20.24
2016-08-01T01:53:29.576Z,20.24
2016-08-01T01:54:26.087Z,20.25
2016-08-01T01:55:32.693Z,20.25
2016-08-01T01:56:26.838Z,20.25
2016-08-01T01:57:28.450Z,20.22
2016-08-01T01:58:26.156Z,20.24
2016-08-01T01:59:31.762Z,20.18
2016-08-01T02:00:31.870Z,20.15
2016-08-01T02:01:47.617Z,20.15
2016-08-01T02:02:27.955Z,20.12
2016-08-01T02:03:28.457Z,20.11
2016-08-01T02:04:27.740Z,20.11
2016-08-01T02:05:37.380Z,20.05
2016-08-01T02:06:35.069Z,20.01
2016-08-01T02:07:31.377Z,20.06
2016-08-01T02:08:32.314Z,20.11
2016-08-01T02:09:27.355Z,20.04
2016-08-01T02:10:33.627Z,20.07
2016-08-01T02:11:29.003Z,20.04
2016-08-01T02:12:11.996Z,20.02
2016-08-01T02:13:31.413Z,20.01
2016-08-01T02:14:30.185Z,20.05
2016-08-01T02:15:30.079Z,20.07
2016-08-01T02:16:28.118Z,20.10
2016-08-01T02:17:31.561Z,20.08
2016-08-01T02:18:28.324Z,20.03
2016-08-01T02:19:32.130Z,20.00
2016-08-01T02:20:30.376Z,20.00
2016-08-01T02:21:32.507Z,20.00
2016-08-01T02:22:26.420Z,20.01
2016-08-01T02:23:25.382Z,20.51
2016-08-01T02:24:29.321Z,20.58
2016-08-01T02:25:31.652Z,20.57
2016-08-01T02:26:33.138Z,20.59
2016-08-01T02:27:38.511Z,20.09
2016-08-01T02:28:30.231Z,20.08
2016-08-01T02:29:25.807Z,20.03
2016-08-01T02:30:27.135Z,19.97
2016-08-01T02:31:27.227Z,19.98
2016-08-01T02:32:32.838Z,19.98
2016-08-01T02:33:26.008Z,19.96
2016-08-01T02:34:33.478Z,19.97
2016-08-01T02:35:26.977Z,19.96
2016-08-01T02:36:31.179Z,19.97
2016-08-01T02:37:32.983Z,19.97
2016-08-01T02:38:31.327Z,19.98
2016-08-01T02:39:30.355Z,19.99
2016-08-01T02:40:26.536Z,19.99
2016-08-01T02:41:36.363Z,19.97
2016-08-01T02:42:30.108Z,19.95
2016-08-01T02:43:26.608Z,19.98
2016-08-01T02:44:25.971Z,19.90
2016-08-01T02:45:28.758Z,19.91
2016-08-01T02:46:27.308Z,19.90
2016-08-01T02:47:33.245Z,19.92
2016-08-01T02:48:30.404Z,19.94
2016-08-01T02:49:33.606Z,19.91
2016-08-01T02:50:31.426Z,19.84
2016-08-01T02:51:30.195Z,19.88
2016-08-01T02:52:25.607Z,19.88
2016-08-01T02:53:29.394Z,19.88
2016-08-01T02:54:28.166Z,19.92
2016-08-01T02:55:32.466Z,19.85
2016-08-01T02:56:29.457Z,19.85
2016-08-01T02:57:39.307Z,19.90
2016-08-01T02:58:29.754Z,19.83
2016-08-01T02:59:33.706Z,19.88
2016-08-01T03:00:27.405Z,19.84
2016-08-01T03:01:26.568Z,19.83
2016-08-01T03:02:29.310Z,19.81
2016-08-01T03:03:31.666Z,19.81
2016-08-01T03:04:22.629Z,19.83
2016-08-01T03:05:35.269Z,19.81
2016-08-01T03:06:36.544Z,19.81
2016-08-01T03:07:30.314Z,19.80
2016-08-01T03:08:29.105Z,19.78
2016-08-01T03:09:31.571Z,19.81
2016-08-01T03:10:30.147Z,19.77
2016-08-01T03:11:25.467Z,19.76
2016-08-01T03:12:32.335Z,19.78
2016-08-01T03:13:31.243Z,19.80
2016-08-01T03:14:29.145Z,19.77
2016-08-01T03:15:27.706Z,19.84
2016-08-01T03:16:28.610Z,19.81
2016-08-01T03:17:27.611Z,19.81
2016-08-01T03:18:33.522Z,19.77
2016-08-01T03:19:30.185Z,19.77
2016-08-01T03:20:25.056Z,19.77
2016-08-01T03:21:31.890Z,20.30
2016-08-01T03:22:31.728Z,20.32
2016-08-01T03:23:28.371Z,20.32
2016-08-01T03:24:31.694Z,20.03
2016-08-01T03:25:26.237Z,19.79
2016-08-01T03:26:34.767Z,19.75
2016-08-01T03:27:21.467Z,19.76
2016-08-01T03:28:30.176Z,19.74
2016-08-01T03:29:32.984Z,19.73
2016-08-01T03:30:31.720Z,19.70
2016-08-01T03:31:29.418Z,19.70
2016-08-01T03:32:30.479Z,19.67
2016-08-01T03:33:31.976Z,20.17
2016-08-01T03:34:26.952Z,19.76
2016-08-01T03:35:24.808Z,19.72
2016-08-01T03:36:30.123Z,19.71
2016-08-01T03:37:30.828Z,19.73
2016-08-01T03:38:27.572Z,19.70
2016-08-01T03:39:34.272Z,19.66
2016-08-01T03:40:27.769Z,19.70
2016-08-01T03:41:25.185Z,19.71
2016-08-01T03:42:28.042Z,19.70
2016-08-01T03:43:32.195Z,19.72
2016-08-01T03:44:28.532Z,19.71
2016-08-01T03:45:32.026Z,19.71
2016-08-01T03:46:26.255Z,19.72
2016-08-01T03:47:27.758Z,19.75
2016-08-01T03:48:30.508Z,20.22
2016-08-01T03:49:29.029Z,20.26
2016-08-01T03:50:28.246Z,19.77
2016-08-01T03:51:27.963Z,19.69
2016-08-01T03:52:30.220Z,19.67
2016-08-01T03:53:31.795Z,19.65
2016-08-01T03:54:28.265Z,19.63
2016-08-01T03:55:27.903Z,19.61
2016-08-01T03:56:29.628Z,19.63
2016-08-01T03:57:27.846Z,19.65
2016-08-01T03:58:27.502Z,20.15
2016-08-01T03:59:27.148Z,19.69
2016-08-01T04:00:31.602Z,19.59
2016-08-01T04:01:26.387Z,19.61
2016-08-01T04:02:21.624Z,19.59
2016-08-01T04:03:32.583Z,19.58
2016-08-01T04:04:33.452Z,19.56
2016-08-01T04:05:28.223Z,19.57
2016-08-01T04:06:31.554Z,19.54
2016-08-01T04:07:38.207Z,19.58
2016-08-01T04:08:36.980Z,19.55
2016-08-01T04:09:32.718Z,19.56
2016-08-01T04:10:32.215Z,19.57
2016-08-01T04:11:30.565Z,19.58
2016-08-01T04:12:31.543Z,19.56
2016-08-01T04:13:28.370Z,19.55
2016-08-01T04:14:28.011Z,19.51
2016-08-01T04:15:26.475Z,19.56
2016-08-01T04:16:28.314Z,19.54
2016-08-01T04:17:31.825Z,19.51
2016-08-01T04:18:31.151Z,19.49
2016-08-01T04:19:31.572Z,19.57
2016-08-01T04:20:30.307Z,19.44
2016-08-01T04:21:27.275Z,19.45
2016-08-01T04:22:30.276Z,19.48
2016-08-01T04:23:32.536Z,19.47
2016-08-01T04:24:27.744Z,19.51
2016-08-01T04:25:55.237Z,19.47
2016-08-01T04:26:27.633Z,19.45
2016-08-01T04:27:30.285Z,19.48
2016-08-01T04:28:33.793Z,19.49
2016-08-01T04:29:27.303Z,19.47
2016-08-01T04:30:36.304Z,19.46
2016-08-01T04:31:32.126Z,19.45
2016-08-01T04:32:26.636Z,19.44
2016-08-01T04:33:31.354Z,19.39
2016-08-01T04:34:32.440Z,19.94
2016-08-01T04:35:30.965Z,19.64
2016-08-01T04:36:27.615Z,19.53
2016-08-01T04:37:30.335Z,19.51
2016-08-01T04:38:27.726Z,19.43
2016-08-01T04:39:28.100Z,19.36
2016-08-01T04:40:31.356Z,19.37
2016-08-01T04:41:28.326Z,19.35
2016-08-01T04:42:25.318Z,19.38
2016-08-01T04:43:29.318Z,19.38
2016-08-01T04:44:26.618Z,19.38
2016-08-01T04:45:33.163Z,19.40
2016-08-01T04:46:23.248Z,19.36
2016-08-01T04:47:24.041Z,19.34
2016-08-01T04:48:34.470Z,19.35
2016-08-01T04:50:28.066Z,19.38
2016-08-01T04:51:33.093Z,19.41
2016-08-01T04:52:26.460Z,19.41
2016-08-01T04:53:29.080Z,19.35
2016-08-01T04:54:26.992Z,19.35
2016-08-01T04:55:30.624Z,19.39
2016-08-01T04:56:28.945Z,19.38
2016-08-01T04:57:30.324Z,19.37
2016-08-01T04:58:26.302Z,19.33
2016-08-01T04:59:22.684Z,19.37
2016-08-01T05:00:30.307Z,19.34
2016-08-01T05:01:28.786Z,19.29
2016-08-01T05:02:31.629Z,19.28
2016-08-01T05:03:22.229Z,19.33
2016-08-01T05:05:26.714Z,19.23
2016-08-01T05:06:27.875Z,19.26
2016-08-01T05:07:31.209Z,19.21
2016-08-01T05:08:30.304Z,19.23
2016-08-01T05:09:27.819Z,19.22
2016-08-01T05:10:31.635Z,19.16
2016-08-01T05:11:29.603Z,19.20
2016-08-01T05:12:30.346Z,19.23
2016-08-01T05:13:31.337Z,19.18
2016-08-01T05:14:27.218Z,19.13
2016-08-01T05:15:23.235Z,19.11
2016-08-01T05:16:24.844Z,19.16
2016-08-01T05:17:29.161Z,19.26
2016-08-01T05:18:27.462Z,19.25
2016-08-01T05:20:27.245Z,19.34
2016-08-01T05:21:38.358Z,19.31
2016-08-01T05:22:30.680Z,19.30
2016-08-01T05:23:28.694Z,19.21
2016-08-01T05:24:28.568Z,19.17
2016-08-01T05:25:30.626Z,19.19
2016-08-01T05:26:30.395Z,19.15
2016-08-01T05:27:28.218Z,19.18
2016-08-01T05:28:32.033Z,19.17
2016-08-01T05:29:33.357Z,19.17
2016-08-01T05:30:28.298Z,19.18
2016-08-01T05:31:30.628Z,19.21
2016-08-01T05:32:31.366Z,19.25
2016-08-01T05:33:29.084Z,19.25
2016-08-01T05:34:31.909Z,19.27
2016-08-01T05:35:27.725Z,19.26
2016-08-01T05:36:27.619Z,19.31
2016-08-01T05:37:31.312Z,19.33
2016-08-01T05:38:32.144Z,19.33
2016-08-01T05:39:32.065Z,19.26
2016-08-01T05:40:27.785Z,19.75
2016-08-01T05:41:25.801Z,19.76
2016-08-01T05:42:32.029Z,19.80
2016-08-01T05:43:30.687Z,19.79
2016-08-01T05:44:28.707Z,19.75
2016-08-01T05:45:30.156Z,19.72
2016-08-01T05:46:27.613Z,19.76
2016-08-01T05:47:29.033Z,19.76
2016-08-01T05:48:29.248Z,19.84
2016-08-01T05:49:20.873Z,19.80
2016-08-01T05:50:28.932Z,19.77
2016-08-01T05:51:31.953Z,19.84
2016-08-01T05:52:33.292Z,19.29
2016-08-01T05:53:26.785Z,19.27
2016-08-01T05:54:31.696Z,19.27
2016-08-01T05:55:22.113Z,19.23
2016-08-01T05:56:33.346Z,19.23
2016-08-01T05:57:27.819Z,19.24
2016-08-01T05:58:31.952Z,19.26
2016-08-01T05:59:31.895Z,19.23
2016-08-01T06:00:27.029Z,19.22
2016-08-01T06:01:31.164Z,19.20
2016-08-01T06:02:32.097Z,19.23
2016-08-01T06:03:32.037Z,19.27
2016-08-01T06:05:28.486Z,19.23
2016-08-01T06:06:21.377Z,19.21
2016-08-01T06:07:30.395Z,19.23
2016-08-01T06:08:26.738Z,19.27
2016-08-01T06:09:28.251Z,19.21
2016-08-01T06:10:27.218Z,19.20
2016-08-01T06:11:24.820Z,19.25
2016-08-01T06:12:25.212Z,19.26
2016-08-01T06:13:21.591Z,19.31
2016-08-01T06:14:28.315Z,19.34
2016-08-01T06:15:26.205Z,19.37
2016-08-01T06:16:32.983Z,19.37
2016-08-01T06:17:27.755Z,19.37
2016-08-01T06:18:30.433Z,19.41
2016-08-01T06:19:28.655Z,19.44
2016-08-01T06:20:31.961Z,19.46
2016-08-01T06:21:33.693Z,19.50
2016-08-01T06:22:37.912Z,19.52
2016-08-01T06:23:40.416Z,19.55
2016-08-01T06:24:30.715Z,19.54
2016-08-01T06:25:34.382Z,19.54
2016-08-01T06:26:22.263Z,19.49
2016-08-01T06:27:33.041Z,20.00
2016-08-01T06:28:34.422Z,19.49
2016-08-01T06:29:38.826Z,19.41
2016-08-01T06:30:31.989Z,19.43
2016-08-01T06:31:32.214Z,19.40
2016-08-01T06:32:38.444Z,19.40
2016-08-01T06:33:41.985Z,19.46
2016-08-01T06:35:31.819Z,19.54
2016-08-01T06:36:29.143Z,19.54
2016-08-01T06:37:31.604Z,20.08
2016-08-01T06:38:35.836Z,20.15
2016-08-01T06:39:38.916Z,20.20
2016-08-01T06:40:29.355Z,20.20
2016-08-01T06:41:33.975Z,20.26
2016-08-01T06:42:36.204Z,19.71
2016-08-01T06:43:34.752Z,19.66
2016-08-01T06:44:28.219Z,19.60
2016-08-01T06:45:33.434Z,19.71
2016-08-01T06:46:31.116Z,19.85
2016-08-01T06:47:31.594Z,19.99
2016-08-01T06:48:33.164Z,20.22
2016-08-01T06:49:31.413Z,20.29
2016-08-01T06:50:29.364Z,20.38
2016-08-01T06:51:28.042Z,20.39
2016-08-01T06:52:14.111Z,20.43
2016-08-01T06:53:29.032Z,20.48
2016-08-01T06:54:34.717Z,20.52
2016-08-01T06:55:33.293Z,20.59
2016-08-01T06:56:32.875Z,21.13
2016-08-01T06:57:27.387Z,20.67
2016-08-01T06:58:26.354Z,20.67
2016-08-01T06:59:31.474Z,20.73
2016-08-01T07:00:21.919Z,20.78
2016-08-01T07:01:41.107Z,20.78
2016-08-01T07:02:27.298Z,20.81
2016-08-01T07:03:29.781Z,20.84
2016-08-01T07:04:26.037Z,20.84
2016-08-01T07:05:29.112Z,20.84
2016-08-01T07:06:32.265Z,20.85
2016-08-01T07:07:31.764Z,20.87
2016-08-01T07:08:35.815Z,20.87
2016-08-01T07:09:27.121Z,20.89
2016-08-01T07:10:27.604Z,20.92
2016-08-01T07:11:30.803Z,20.92
2016-08-01T07:12:25.481Z,20.93
2016-08-01T07:13:31.823Z,20.94
2016-08-01T07:14:33.048Z,20.96
2016-08-01T07:15:24.830Z,20.98
2016-08-01T07:16:33.809Z,20.98
2016-08-01T07:17:13.830Z,21.00
2016-08-01T07:18:38.788Z,21.01
2016-08-01T07:19:27.998Z,21.03
2016-08-01T07:20:32.055Z,21.03
2016-08-01T07:21:27.734Z,21.06
2016-08-01T07:22:31.179Z,21.07
2016-08-01T07:23:25.030Z,21.07
2016-08-01T07:24:28.123Z,21.10
2016-08-01T07:25:34.806Z,21.11
2016-08-01T07:26:39.983Z,21.12
2016-08-01T07:27:34.183Z,21.13
2016-08-01T07:28:33.923Z,21.15
2016-08-01T07:29:14.901Z,21.15
2016-08-01T07:30:32.910Z,21.16
2016-08-01T07:31:27.020Z,21.17
2016-08-01T07:32:32.291Z,21.20
2016-08-01T07:33:33.207Z,21.18
2016-08-01T07:34:30.529Z,21.19
2016-08-01T07:35:27.795Z,21.20
2016-08-01T07:36:33.723Z,21.21
2016-08-01T07:37:34.481Z,21.23
2016-08-01T07:38:35.187Z,21.24
2016-08-01T07:39:32.318Z,21.26
2016-08-01T07:40:34.465Z,21.24
2016-08-01T07:41:32.106Z,21.25
2016-08-01T07:42:30.519Z,21.26
2016-08-01T07:43:26.157Z,21.28
2016-08-01T07:44:30.818Z,21.28
2016-08-01T07:45:30.616Z,21.29
2016-08-01T07:46:28.120Z,21.30
2016-08-01T07:47:32.091Z,21.31
2016-08-01T07:48:32.175Z,21.31
2016-08-01T07:49:30.263Z,21.32
2016-08-01T07:50:34.603Z,21.32
2016-08-01T07:51:35.408Z,21.33
2016-08-01T07:52:34.265Z,21.43
2016-08-01T07:53:31.781Z,21.36
2016-08-01T07:54:28.559Z,21.37
2016-08-01T07:55:26.672Z,21.90
2016-08-01T07:56:32.052Z,21.97
2016-08-01T07:57:23.832Z,22.00
2016-08-01T07:58:33.479Z,22.02
2016-08-01T07:59:30.839Z,22.04
2016-08-01T08:00:31.165Z,22.04
2016-08-01T08:01:34.567Z,22.06
2016-08-01T08:02:32.401Z,22.06
2016-08-01T08:03:33.546Z,22.07
2016-08-01T08:04:26.291Z,22.09
2016-08-01T08:05:26.739Z,21.72
2016-08-01T08:06:32.349Z,21.56
2016-08-01T08:07:32.638Z,21.50
2016-08-01T08:08:36.337Z,21.50
2016-08-01T08:09:32.115Z,21.49
2016-08-01T08:10:21.647Z,21.49
2016-08-01T08:11:26.065Z,21.49
2016-08-01T08:12:28.845Z,21.50
2016-08-01T08:13:34.804Z,21.50
2016-08-01T08:14:26.302Z,21.50
2016-08-01T08:15:22.211Z,21.54
2016-08-01T08:16:24.808Z,22.05
2016-08-01T08:17:26.193Z,21.57
2016-08-01T08:18:33.482Z,21.55
2016-08-01T08:19:32.581Z,21.54
2016-08-01T08:20:33.853Z,21.54
2016-08-01T08:21:12.956Z,21.55
2016-08-01T08:22:26.906Z,21.55
2016-08-01T08:23:20.495Z,21.55
2016-08-01T08:24:31.658Z,21.56
2016-08-01T08:25:30.084Z,21.56
2016-08-01T08:26:27.628Z,21.56
2016-08-01T08:27:32.302Z,21.57
2016-08-01T08:28:31.630Z,21.58
2016-08-01T08:29:45.171Z,21.58
2016-08-01T08:30:34.341Z,21.58
2016-08-01T08:31:35.864Z,21.59
2016-08-01T08:32:34.437Z,21.59
2016-08-01T08:33:32.101Z,21.60
2016-08-01T08:34:19.848Z,21.60
2016-08-01T08:35:29.980Z,21.60
2016-08-01T08:36:12.031Z,21.60
2016-08-01T08:37:36.344Z,21.61
2016-08-01T08:38:35.534Z,21.61
2016-08-01T08:39:47.129Z,21.62
2016-08-01T08:40:31.911Z,21.61
2016-08-01T08:41:28.306Z,21.61
2016-08-01T08:42:31.940Z,21.62
2016-08-01T08:43:34.135Z,21.62
2016-08-01T08:44:29.390Z,21.64
2016-08-01T08:45:33.120Z,21.63
2016-08-01T08:46:27.669Z,21.64
2016-08-01T08:47:24.528Z,21.64
2016-08-01T08:48:21.945Z,21.64
2016-08-01T08:49:27.717Z,22.18
2016-08-01T08:50:29.120Z,21.72
2016-08-01T08:51:32.702Z,21.69
2016-08-01T08:52:28.804Z,21.69
2016-08-01T08:53:30.777Z,21.69
2016-08-01T08:54:32.172Z,21.68
2016-08-01T08:55:32.451Z,21.68
2016-08-01T08:56:32.214Z,21.69
2016-08-01T08:57:26.173Z,21.70
2016-08-01T08:58:27.917Z,21.70
2016-08-01T08:59:20.561Z,21.70
2016-08-01T09:00:20.717Z,21.71
2016-08-01T09:01:22.005Z,21.74
2016-08-01T09:02:28.277Z,21.71
2016-08-01T09:03:31.996Z,21.72
2016-08-01T09:04:33.911Z,21.73
2016-08-01T09:05:30.942Z,21.73
2016-08-01T09:06:34.365Z,21.76
2016-08-01T09:07:32.222Z,21.74
2016-08-01T09:08:19.965Z,21.75
2016-08-01T09:09:31.520Z,21.75
2016-08-01T09:10:32.036Z,21.74
2016-08-01T09:11:19.220Z,21.75
2016-08-01T09:12:11.891Z,21.75
2016-08-01T09:13:27.503Z,22.29
2016-08-01T09:14:32.651Z,22.04
2016-08-01T09:15:32.214Z,21.83
2016-08-01T09:16:33.611Z,21.81
2016-08-01T09:17:32.220Z,21.79
2016-08-01T09:18:32.459Z,21.79
2016-08-01T09:19:28.363Z,21.79
2016-08-01T09:21:31.915Z,21.79
2016-08-01T09:22:31.962Z,21.79
2016-08-01T09:23:26.314Z,21.80
2016-08-01T09:24:28.635Z,21.80
2016-08-01T09:25:38.910Z,21.80
2016-08-01T09:26:32.497Z,21.80
2016-08-01T09:27:32.012Z,21.81
2016-08-01T09:28:30.964Z,21.80
2016-08-01T09:29:22.067Z,21.81
2016-08-01T09:30:28.442Z,21.81
2016-08-01T09:31:32.503Z,21.82
2016-08-01T09:32:27.013Z,21.82
2016-08-01T09:33:27.348Z,21.83
2016-08-01T09:34:18.421Z,21.82
2016-08-01T09:35:12.725Z,21.83
2016-08-01T09:36:28.635Z,21.84
2016-08-01T09:37:12.497Z,21.84
2016-08-01T09:38:33.279Z,21.84
2016-08-01T09:39:18.907Z,21.84
2016-08-01T09:40:34.138Z,21.84
2016-08-01T09:41:28.691Z,21.86
2016-08-01T09:42:30.896Z,21.85
2016-08-01T09:43:30.983Z,21.91
2016-08-01T09:44:26.949Z,21.86
2016-08-01T09:45:29.067Z,21.86
2016-08-01T09:46:26.071Z,21.90
2016-08-01T09:47:32.139Z,21.88
2016-08-01T09:48:30.994Z,21.87
2016-08-01T09:49:22.085Z,21.88
2016-08-01T09:50:17.356Z,21.88
2016-08-01T09:51:34.298Z,21.88
2016-08-01T09:52:33.157Z,21.88
2016-08-01T09:53:38.716Z,21.92
2016-08-01T09:54:26.720Z,21.89
2016-08-01T09:55:27.638Z,21.90
2016-08-01T09:56:24.536Z,21.89
2016-08-01T09:57:15.256Z,21.93
2016-08-01T09:58:20.376Z,21.91
2016-08-01T09:59:38.569Z,21.91
2016-08-01T10:00:15.343Z,21.91
2016-08-01T10:01:28.809Z,21.91
2016-08-01T10:02:28.370Z,21.91
2016-08-01T10:03:33.216Z,21.92
2016-08-01T10:04:27.970Z,21.92
2016-08-01T10:05:11.918Z,21.91
2016-08-01T10:06:12.119Z,22.47
2016-08-01T10:07:32.154Z,22.53
2016-08-01T10:08:31.850Z,22.56
2016-08-01T10:09:29.448Z,22.58
2016-08-01T10:10:33.576Z,22.58
2016-08-01T10:11:38.766Z,22.22
2016-08-01T10:12:27.853Z,22.05
2016-08-01T10:13:19.993Z,22.00
2016-08-01T10:14:28.815Z,21.98
2016-08-01T10:15:21.462Z,21.98
2016-08-01T10:16:32.521Z,21.98
2016-08-01T10:17:31.942Z,21.97
2016-08-01T10:18:27.505Z,21.97
2016-08-01T10:19:28.004Z,22.01
2016-08-01T10:21:33.088Z,21.96
2016-08-01T10:22:33.835Z,21.96
2016-08-01T10:23:29.106Z,21.96
2016-08-01T10:24:32.560Z,21.98
2016-08-01T10:25:33.107Z,21.97
2016-08-01T10:26:32.515Z,21.98
2016-08-01T10:27:26.728Z,21.98
2016-08-01T10:28:28.211Z,21.98
2016-08-01T10:29:13.637Z,21.98
2016-08-01T10:30:14.543Z,21.98
2016-08-01T10:31:30.886Z,21.99
2016-08-01T10:32:15.060Z,22.01
2016-08-01T10:33:14.875Z,22.00
2016-08-01T10:34:31.068Z,22.03
2016-08-01T10:36:42.185Z,22.01
2016-08-01T10:37:27.926Z,22.01
2016-08-01T10:38:32.164Z,22.02
2016-08-01T10:39:33.444Z,22.03
2016-08-01T10:40:15.636Z,22.02
2016-08-01T10:41:15.259Z,22.02
2016-08-01T10:42:18.753Z,22.04
2016-08-01T10:43:14.412Z,22.01
2016-08-01T10:44:16.967Z,22.01
2016-08-01T10:45:16.280Z,22.00
2016-08-01T10:46:18.499Z,22.02
2016-08-01T10:47:15.424Z,22.05
2016-08-01T10:48:18.286Z,22.01
2016-08-01T10:49:15.744Z,22.00
2016-08-01T10:50:15.855Z,22.00
2016-08-01T10:51:16.405Z,22.00
2016-08-01T10:52:18.103Z,22.01
2016-08-01T10:53:17.582Z,22.03
2016-08-01T10:54:13.301Z,22.03
2016-08-01T10:55:20.265Z,22.04
2016-08-01T10:56:15.075Z,22.08
2016-08-01T10:57:16.350Z,22.57
2016-08-01T10:58:16.262Z,22.63
2016-08-01T10:59:16.952Z,22.64
2016-08-01T11:00:16.740Z,22.36
2016-08-01T11:01:16.621Z,22.14
2016-08-01T11:02:15.923Z,22.10
2016-08-01T11:03:16.645Z,22.09
2016-08-01T11:04:15.543Z,22.08
2016-08-01T11:05:15.117Z,22.11
2016-08-01T11:06:15.610Z,22.08
2016-08-01T11:07:15.723Z,22.09
2016-08-01T11:08:17.903Z,22.09
2016-08-01T11:09:17.106Z,22.05
2016-08-01T11:10:14.642Z,22.09
2016-08-01T11:11:16.953Z,22.06
2016-08-01T11:12:17.200Z,22.07
2016-08-01T11:13:14.481Z,22.14
2016-08-01T11:14:15.185Z,22.08
2016-08-01T11:15:15.172Z,22.11
2016-08-01T11:16:16.367Z,22.10
2016-08-01T11:17:15.763Z,22.12
2016-08-01T11:18:16.564Z,22.10
2016-08-01T11:19:15.191Z,22.11
2016-08-01T11:20:15.838Z,22.15
2016-08-01T11:21:15.710Z,22.12
2016-08-01T11:22:15.813Z,22.11
2016-08-01T11:23:17.669Z,22.15
2016-08-01T11:24:18.015Z,22.66
2016-08-01T11:25:15.391Z,22.72
2016-08-01T11:26:12.632Z,22.21
2016-08-01T11:27:15.336Z,22.21
2016-08-01T11:28:16.470Z,22.12
2016-08-01T11:29:15.030Z,22.13
2016-08-01T11:30:15.424Z,22.13
2016-08-01T11:31:14.331Z,22.10
2016-08-01T11:32:15.071Z,22.13
2016-08-01T11:33:16.877Z,22.11
2016-08-01T11:34:15.275Z,22.08
2016-08-01T11:35:15.818Z,22.13
2016-08-01T11:36:15.523Z,22.09
2016-08-01T11:37:16.639Z,22.09
2016-08-01T11:38:17.334Z,22.09
2016-08-01T11:39:15.396Z,22.09
2016-08-01T11:40:15.427Z,22.10
2016-08-01T11:41:15.573Z,22.09
2016-08-01T11:42:17.083Z,22.07
2016-08-01T11:43:16.658Z,22.14
2016-08-01T11:44:17.112Z,22.07
2016-08-01T11:45:16.481Z,22.08
2016-08-01T11:46:17.113Z,22.09
2016-08-01T11:47:16.180Z,22.12
2016-08-01T11:48:16.607Z,22.08
2016-08-01T11:49:15.342Z,22.11
2016-08-01T11:50:16.059Z,22.12
2016-08-01T11:51:16.563Z,22.09
2016-08-01T11:52:16.503Z,22.11
2016-08-01T11:53:16.253Z,22.12
2016-08-01T11:54:17.743Z,22.66
2016-08-01T11:55:16.853Z,22.36
2016-08-01T11:56:15.608Z,22.20
2016-08-01T11:57:15.185Z,22.16
2016-08-01T11:58:17.050Z,22.13
2016-08-01T11:59:17.621Z,22.15
2016-08-01T12:00:15.360Z,22.12
2016-08-01T12:01:17.301Z,22.15
2016-08-01T12:02:17.465Z,22.65
2016-08-01T12:03:17.525Z,22.70
2016-08-01T12:04:16.873Z,22.72
2016-08-01T12:05:15.715Z,22.74
2016-08-01T12:06:16.819Z,22.74
2016-08-01T12:07:16.860Z,22.22
2016-08-01T12:08:16.892Z,22.16
2016-08-01T12:09:17.578Z,22.14
2016-08-01T12:10:15.802Z,22.17
2016-08-01T12:11:16.378Z,22.13
2016-08-01T12:12:18.119Z,22.13
2016-08-01T12:13:16.415Z,22.18
2016-08-01T12:14:15.730Z,22.15
2016-08-01T12:15:15.575Z,22.15
2016-08-01T12:16:15.939Z,22.20
2016-08-01T12:17:13.496Z,22.15
2016-08-01T12:18:15.414Z,22.15
2016-08-01T12:19:16.430Z,22.19
2016-08-01T12:20:15.674Z,22.17
2016-08-01T12:21:14.846Z,22.19
2016-08-01T12:22:15.537Z,22.19
2016-08-01T12:23:18.795Z,22.18
2016-08-01T12:24:16.461Z,22.21
2016-08-01T12:25:15.198Z,22.22
2016-08-01T12:26:13.417Z,22.19
2016-08-01T12:27:15.676Z,22.21
2016-08-01T12:28:16.885Z,22.19
2016-08-01T12:29:14.503Z,22.18
2016-08-01T12:30:17.013Z,22.38
2016-08-01T12:31:15.107Z,22.23
2016-08-01T12:32:16.405Z,22.20
2016-08-01T12:33:14.890Z,22.18
2016-08-01T12:34:15.222Z,22.17
2016-08-01T12:35:13.042Z,22.15
2016-08-01T12:36:15.942Z,22.23
2016-08-01T12:37:14.350Z,22.17
2016-08-01T12:38:17.465Z,22.18
2016-08-01T12:39:13.262Z,22.19
2016-08-01T12:40:15.911Z,22.20
2016-08-01T12:41:15.220Z,22.27
2016-08-01T12:42:16.558Z,22.21
2016-08-01T12:43:17.264Z,22.21
2016-08-01T12:44:18.495Z,22.21
2016-08-01T12:45:15.776Z,22.26
2016-08-01T12:46:15.272Z,22.29
2016-08-01T12:47:13.789Z,22.23
2016-08-01T12:48:15.381Z,22.24
2016-08-01T12:49:15.786Z,22.26
2016-08-01T12:50:15.103Z,22.27
2016-08-01T12:52:15.596Z,22.26
2016-08-01T12:53:17.120Z,22.25
2016-08-01T12:54:15.322Z,22.27
2016-08-01T12:55:17.274Z,22.25
2016-08-01T12:56:17.898Z,22.28
2016-08-01T12:57:15.579Z,22.25
2016-08-01T12:58:15.912Z,22.26
2016-08-01T12:59:17.616Z,22.22
2016-08-01T13:00:16.557Z,22.25
2016-08-01T13:01:17.313Z,22.23
2016-08-01T13:02:16.173Z,22.22
2016-08-01T13:03:16.518Z,22.25
2016-08-01T13:04:20.053Z,22.21
2016-08-01T13:05:15.715Z,22.23